createdAt,value
2023-02-28T00:00:54.560Z,98312.06
2023-02-28T00:03:21.247Z,98307.31
2023-02-28T00:05:47.980Z,98313.25
2023-02-28T00:08:15.250Z,98307.25
2023-02-28T00:10:41.950Z,98311.88
2023-02-28T00:13:08.687Z,98315.38
2023-02-28T00:15:35.672Z,98314.38
2023-02-28T00:18:03.078Z,98309.00
2023-02-28T00:20:30.621Z,98314.47
2023-02-28T00:22:57.329Z,98310.03
2023-02-28T00:25:26.239Z,98297.38
2023-02-28T00:27:53.637Z,98296.72
2023-02-28T00:30:23.545Z,98295.06
2023-02-28T00:32:51.499Z,98304.03
2023-02-28T00:35:18.807Z,98296.00
2023-02-28T00:37:45.550Z,98295.06
2023-02-28T00:40:13.206Z,98286.63
2023-02-28T00:42:40.723Z,98285.63
2023-02-28T00:45:08.791Z,98293.75
2023-02-28T00:47:35.692Z,98294.31
2023-02-28T00:50:02.715Z,98297.66
2023-02-28T00:52:29.535Z,98286.09
2023-02-28T00:54:56.665Z,98284.78
2023-02-28T00:57:23.653Z,98280.63
2023-02-28T00:59:50.489Z,98278.50
2023-02-28T01:02:17.543Z,98273.59
2023-02-28T01:04:44.279Z,98275.91
2023-02-28T01:07:10.938Z,98272.84
2023-02-28T01:09:37.694Z,98272.22
2023-02-28T01:12:04.793Z,98260.94
2023-02-28T01:14:31.462Z,98273.41
2023-02-28T01:16:58.103Z,98264.25
2023-02-28T01:19:24.823Z,98265.34
2023-02-28T01:21:51.385Z,98262.28
2023-02-28T01:24:18.036Z,98266.00
2023-02-28T01:26:44.724Z,98264.16
2023-02-28T01:29:11.418Z,98269.72
2023-02-28T01:31:38.142Z,98267.22
2023-02-28T01:34:04.989Z,98257.13
2023-02-28T01:36:31.641Z,98262.97
2023-02-28T01:38:58.282Z,98263.41
2023-02-28T01:41:29.109Z,98254.25
2023-02-28T01:44:06.729Z,98248.88
2023-02-28T01:46:35.720Z,98249.75
2023-02-28T01:49:18.028Z,98245.84
2023-02-28T01:51:55.798Z,98242.91
2023-02-28T01:54:26.980Z,98242.72
2023-02-28T01:57:06.669Z,98245.84
2023-02-28T01:59:47.409Z,98243.69
2023-02-28T02:02:15.934Z,98232.06
2023-02-28T02:04:59.578Z,98234.84
2023-02-28T02:07:27.171Z,98238.28
2023-02-28T02:10:25.515Z,98232.72
2023-02-28T02:13:12.607Z,98231.59
2023-02-28T02:16:24.179Z,98225.31
2023-02-28T02:18:59.007Z,98224.56
2023-02-28T02:56:30.231Z,98207.00
2023-02-28T02:59:02.955Z,98206.34
2023-02-28T03:01:32.610Z,98206.66
2023-02-28T03:04:05.474Z,98205.69
2023-02-28T03:06:32.290Z,98215.06
2023-02-28T03:08:58.938Z,98209.41
2023-02-28T03:11:25.651Z,98205.06
2023-02-28T03:14:28.310Z,98198.50
2023-02-28T03:17:20.827Z,98197.28
2023-02-28T03:20:33.216Z,98204.03
2023-02-28T03:23:35.154Z,98207.19
2023-02-28T03:26:12.920Z,98213.28
2023-02-28T03:29:02.633Z,98208.84
2023-02-28T03:31:38.224Z,98208.13
2023-02-28T03:34:27.539Z,98199.03
2023-02-28T03:36:58.559Z,98205.25
2023-02-28T03:39:32.170Z,98204.59
2023-02-28T03:42:02.733Z,98208.31
2023-02-28T03:44:34.940Z,98207.81
2023-02-28T03:47:50.956Z,98202.38
2023-02-28T03:50:28.222Z,98203.19
2023-02-28T03:53:02.568Z,98195.38
2023-02-28T03:55:40.271Z,98214.41
2023-02-28T03:58:16.879Z,98203.41
2023-02-28T04:00:53.913Z,98202.09
2023-02-28T04:03:20.734Z,98204.22
2023-02-28T04:05:55.490Z,98208.00
2023-02-28T04:08:23.644Z,98202.75
2023-02-28T04:10:59.347Z,98208.13
2023-02-28T04:13:25.993Z,98205.25
2023-02-28T04:15:52.630Z,98201.34
2023-02-28T04:18:19.301Z,98196.66
2023-02-28T04:20:45.865Z,98203.13
2023-02-28T04:23:12.499Z,98208.31
2023-02-28T04:25:41.379Z,98194.97
2023-02-28T04:28:08.191Z,98201.09
2023-02-28T04:30:34.824Z,98213.09
2023-02-28T04:33:02.029Z,98206.63
2023-02-28T04:35:28.619Z,98207.06
2023-02-28T04:37:55.312Z,98199.88
2023-02-28T04:40:21.985Z,98211.59
2023-02-28T04:42:48.551Z,98196.63
2023-02-28T04:45:15.100Z,98204.66
2023-02-28T04:47:41.781Z,98202.25
2023-02-28T04:50:09.672Z,98203.66
2023-02-28T04:52:36.321Z,98200.97
2023-02-28T04:55:03.023Z,98202.72
2023-02-28T04:57:31.020Z,98195.69
2023-02-28T04:59:57.641Z,98209.09
2023-02-28T05:02:24.879Z,98201.06
2023-02-28T05:04:51.588Z,98201.53
2023-02-28T05:07:18.304Z,98201.16
2023-02-28T05:09:44.963Z,98201.78
2023-02-28T05:12:11.684Z,98197.72
2023-02-28T05:14:38.331Z,98198.34
2023-02-28T05:17:04.988Z,98206.38
2023-02-28T05:19:31.654Z,98196.88
2023-02-28T05:21:58.465Z,98211.84
2023-02-28T05:24:25.398Z,98206.19
2023-02-28T05:26:54.145Z,98204.53
2023-02-28T05:29:21.053Z,98202.59
2023-02-28T05:31:48.242Z,98206.47
2023-02-28T05:34:16.605Z,98201.38
2023-02-28T05:36:43.863Z,98192.16
2023-02-28T05:39:14.251Z,98200.66
2023-02-28T05:41:44.687Z,98202.66
2023-02-28T05:44:11.998Z,98212.78
2023-02-28T05:46:39.475Z,98212.88
2023-02-28T05:49:06.326Z,98203.13
2023-02-28T05:51:33.173Z,98213.38
2023-02-28T05:54:01.534Z,98204.19
2023-02-28T05:56:28.823Z,98208.44
2023-02-28T05:58:55.526Z,98211.56
2023-02-28T06:01:37.552Z,98207.16
2023-02-28T06:04:06.159Z,98222.94
2023-02-28T06:06:36.915Z,98220.59
2023-02-28T06:09:06.625Z,98221.59
2023-02-28T06:11:33.918Z,98212.28
2023-02-28T06:14:01.888Z,98226.78
2023-02-28T06:16:30.334Z,98224.19
2023-02-28T06:18:59.453Z,98231.84
2023-02-28T06:21:26.104Z,98229.00
2023-02-28T06:23:52.733Z,98228.06
2023-02-28T06:26:20.295Z,98233.44
2023-02-28T06:28:47.862Z,98236.03
2023-02-28T06:31:16.238Z,98244.84
2023-02-28T06:33:44.247Z,98241.31
2023-02-28T06:36:13.507Z,98247.56
2023-02-28T06:38:42.001Z,98253.16
2023-02-28T06:41:09.522Z,98246.78
2023-02-28T06:43:40.468Z,98250.31
2023-02-28T06:46:09.168Z,98260.69
2023-02-28T06:48:36.552Z,98255.31
2023-02-28T06:51:15.729Z,98265.78
2023-02-28T06:53:42.465Z,98266.34
2023-02-28T06:56:11.777Z,98258.31
2023-02-28T06:58:39.993Z,98269.72
2023-02-28T07:01:07.763Z,98267.34
2023-02-28T07:03:36.057Z,98263.41
2023-02-28T07:06:03.781Z,98258.31
2023-02-28T07:08:30.798Z,98262.56
2023-02-28T07:10:57.927Z,98262.81
2023-02-28T07:13:25.509Z,98262.75
2023-02-28T07:16:04.142Z,98261.38
2023-02-28T07:18:31.459Z,98265.81
2023-02-28T07:20:58.533Z,98251.09
2023-02-28T07:23:25.431Z,98252.03
2023-02-28T07:25:53.042Z,98261.56
2023-02-28T07:28:19.712Z,98261.47
2023-02-28T07:30:46.558Z,98261.56
2023-02-28T07:33:13.216Z,98258.34
2023-02-28T07:35:39.856Z,98260.66
2023-02-28T07:38:08.412Z,98261.22
2023-02-28T07:40:35.804Z,98261.56
2023-02-28T07:43:03.041Z,98268.41
2023-02-28T07:45:30.774Z,98269.72
2023-02-28T07:47:57.476Z,98271.47
2023-02-28T07:50:26.141Z,98266.47
2023-02-28T07:52:53.624Z,98268.34
2023-02-28T07:55:20.266Z,98270.53
2023-02-28T07:57:46.870Z,98269.06
2023-02-28T08:00:14.627Z,98270.72
2023-02-28T08:02:41.607Z,98268.97
2023-02-28T08:05:08.617Z,98265.28
2023-02-28T08:07:35.262Z,98267.31
2023-02-28T08:10:02.190Z,98284.13
2023-02-28T08:12:29.011Z,98276.47
2023-02-28T08:14:55.655Z,98276.91
2023-02-28T08:17:22.298Z,98285.50
2023-02-28T08:19:48.929Z,98274.38
2023-02-28T08:22:15.489Z,98279.22
2023-02-28T08:24:43.770Z,98275.78
2023-02-28T08:27:11.261Z,98268.81
2023-02-28T08:29:39.260Z,98273.97
2023-02-28T08:32:14.570Z,98277.91
2023-02-28T08:34:48.131Z,98273.81
2023-02-28T08:37:14.932Z,98283.97
2023-02-28T08:39:41.767Z,98281.97
2023-02-28T08:42:08.400Z,98293.69
2023-02-28T08:44:35.213Z,98288.66
2023-02-28T08:47:01.866Z,98287.09
2023-02-28T08:49:28.501Z,98278.84
2023-02-28T08:51:56.396Z,98290.75
2023-02-28T08:54:23.947Z,98296.84
2023-02-28T08:56:50.827Z,98303.56
2023-02-28T08:59:17.447Z,98306.34
2023-02-28T09:01:44.636Z,98296.13
2023-02-28T09:04:13.277Z,98293.63
2023-02-28T09:06:42.328Z,98302.31
2023-02-28T09:09:10.476Z,98302.38
2023-02-28T09:11:37.608Z,98314.19
2023-02-28T09:14:04.707Z,98301.75
2023-02-28T09:16:33.842Z,98312.31
2023-02-28T09:19:00.999Z,98308.19
2023-02-28T09:21:29.034Z,98301.75
2023-02-28T09:23:56.020Z,98313.72
2023-02-28T09:26:32.577Z,98320.38
2023-02-28T09:29:05.927Z,98315.78
2023-02-28T09:31:32.612Z,98315.31
2023-02-28T09:34:00.322Z,98310.78
2023-02-28T09:36:43.347Z,98308.59
2023-02-28T09:39:12.867Z,98315.22
2023-02-28T09:41:48.551Z,98314.28
2023-02-28T09:44:30.279Z,98320.75
2023-02-28T09:47:06.291Z,98319.84
2023-02-28T09:49:39.977Z,98316.94
2023-02-28T09:52:13.168Z,98322.03
2023-02-28T09:54:41.268Z,98326.75
2023-02-28T09:57:36.492Z,98328.25
2023-02-28T10:00:20.187Z,98329.84
2023-02-28T10:03:26.075Z,98331.59
2023-02-28T10:05:57.517Z,98339.78
2023-02-28T10:08:31.189Z,98336.91
2023-02-28T10:11:08.525Z,98335.16
2023-02-28T10:14:02.400Z,98340.38
2023-02-28T10:16:57.557Z,98341.59
2023-02-28T10:19:51.673Z,98339.63
2023-02-28T10:22:37.280Z,98341.66
2023-02-28T10:25:18.414Z,98342.59
2023-02-28T10:27:45.115Z,98346.09
2023-02-28T10:30:14.108Z,98349.59
2023-02-28T10:32:43.519Z,98345.03
2023-02-28T10:35:30.324Z,98340.66
2023-02-28T10:38:00.165Z,98338.16
2023-02-28T10:40:36.546Z,98338.66
2023-02-28T10:43:18.845Z,98340.72
2023-02-28T10:45:58.570Z,98334.34
2023-02-28T10:48:34.682Z,98333.34
2023-02-28T10:51:02.643Z,98326.50
2023-02-28T10:53:57.633Z,98335.41
2023-02-28T10:56:26.370Z,98324.84
2023-02-28T10:59:04.443Z,98326.31
2023-02-28T11:01:53.866Z,98327.63
2023-02-28T11:04:41.514Z,98313.16
2023-02-28T11:07:37.319Z,98311.19
2023-02-28T11:10:22.072Z,98314.88
2023-02-28T11:12:52.853Z,98317.34
2023-02-28T11:15:33.446Z,98306.06
2023-02-28T11:18:21.947Z,98305.81
2023-02-28T11:20:52.143Z,98306.84
2023-02-28T11:23:21.153Z,98309.31
2023-02-28T11:25:55.438Z,98310.53
2023-02-28T11:28:32.313Z,98303.69
2023-02-28T11:31:20.424Z,98313.50
2023-02-28T11:33:57.358Z,98307.34
2023-02-28T11:36:29.889Z,98308.34
2023-02-28T11:38:57.776Z,98307.38
2023-02-28T11:42:03.168Z,98301.97
2023-02-28T11:45:37.980Z,98301.47
2023-02-28T11:48:28.609Z,98289.91
2023-02-28T11:51:16.355Z,98296.75
2023-02-28T11:53:53.220Z,98296.28
2023-02-28T11:56:48.538Z,98292.34
2023-02-28T11:59:50.402Z,98285.69
2023-02-28T12:02:57.583Z,98296.50
2023-02-28T12:05:50.631Z,98289.84
2023-02-28T12:08:45.174Z,98284.69
2023-02-28T12:11:39.994Z,98281.22
2023-02-28T12:15:00.980Z,98284.66
2023-02-28T12:18:04.567Z,98279.47
2023-02-28T12:20:50.966Z,98281.91
2023-02-28T12:23:43.534Z,98271.50
2023-02-28T12:26:23.450Z,98274.19
2023-02-28T12:28:54.343Z,98279.63
2023-02-28T12:31:36.300Z,98276.59
2023-02-28T12:34:10.793Z,98270.78
2023-02-28T12:36:38.613Z,98271.25
2023-02-28T12:39:23.922Z,98269.44
2023-02-28T12:42:09.755Z,98276.28
2023-02-28T12:44:43.975Z,98266.69
2023-02-28T12:47:15.502Z,98266.69
2023-02-28T12:49:59.314Z,98265.91
2023-02-28T12:53:04.485Z,98267.69
2023-02-28T12:55:57.253Z,98267.75
2023-02-28T12:58:43.369Z,98263.50
2023-02-28T13:01:35.255Z,98265.91
2023-02-28T13:04:47.214Z,98264.19
2023-02-28T13:07:57.394Z,98261.94
2023-02-28T13:10:24.799Z,98257.97
2023-02-28T13:12:54.156Z,98256.28
2023-02-28T13:15:26.049Z,98265.84
2023-02-28T13:17:55.728Z,98253.81
2023-02-28T13:20:25.819Z,98254.78
2023-02-28T13:22:55.721Z,98256.00
2023-02-28T13:25:54.943Z,98255.13
2023-02-28T13:29:13.836Z,98250.25
2023-02-28T13:32:23.506Z,98252.44
2023-02-28T13:35:14.901Z,98255.28
2023-02-28T13:37:46.153Z,98245.69
2023-02-28T13:40:38.804Z,98242.72
2023-02-28T13:43:09.914Z,98243.66
2023-02-28T13:45:39.460Z,98251.50
2023-02-28T13:48:26.334Z,98249.47
2023-02-28T13:50:53.096Z,98252.44
2023-02-28T13:54:02.010Z,98246.72
2023-02-28T13:56:42.641Z,98249.59
2023-02-28T13:59:51.523Z,98250.63
2023-02-28T14:03:00.069Z,98251.63
2023-02-28T14:05:28.034Z,98257.31
2023-02-28T14:07:57.925Z,98265.63
2023-02-28T14:10:37.812Z,98257.75
2023-02-28T14:13:31.270Z,98258.50
2023-02-28T14:16:01.167Z,98250.94
2023-02-28T14:18:34.592Z,98260.03
2023-02-28T14:21:29.866Z,98252.63
2023-02-28T14:27:59.111Z,98247.19
2023-02-28T14:30:56.685Z,98250.94
2023-02-28T14:33:48.764Z,98254.88
2023-02-28T14:36:27.389Z,98252.16
2023-02-28T14:38:58.306Z,98254.38
2023-02-28T14:41:38.034Z,98262.03
2023-02-28T14:44:14.070Z,98262.03
2023-02-28T14:46:42.643Z,98258.09
2023-02-28T14:49:30.016Z,98260.81
2023-02-28T14:52:34.118Z,98263.25
2023-02-28T14:55:08.177Z,98264.47
2023-02-28T14:57:40.316Z,98266.41
2023-02-28T15:00:30.718Z,98263.97
2023-02-28T15:02:59.412Z,98259.28
2023-02-28T15:05:34.685Z,98265.44
2023-02-28T15:08:14.819Z,98262.72
2023-02-28T15:10:51.441Z,98270.84
2023-02-28T15:13:20.122Z,98270.06
2023-02-28T15:16:02.273Z,98268.59
2023-02-28T15:19:07.049Z,98264.47
2023-02-28T15:21:37.633Z,98275.81
2023-02-28T15:24:45.348Z,98276.78
2023-02-28T15:27:17.474Z,98281.75
2023-02-28T15:29:50.237Z,98281.81
2023-02-28T15:32:40.886Z,98284.97
2023-02-28T15:35:32.036Z,98284.97
2023-02-28T15:38:03.317Z,98281.81
2023-02-28T15:40:38.801Z,98279.38
2023-02-28T15:43:23.940Z,98286.53
2023-02-28T15:45:54.139Z,98284.56
2023-02-28T15:48:53.966Z,98292.22
2023-02-28T15:51:25.462Z,98287.34
2023-02-28T15:54:03.852Z,98291.75
2023-02-28T15:56:32.892Z,98287.09
2023-02-28T15:59:14.597Z,98291.06
2023-02-28T16:01:41.261Z,98291.34
2023-02-28T16:04:19.345Z,98288.38
2023-02-28T16:06:47.698Z,98289.88
2023-02-28T16:09:16.902Z,98292.09
2023-02-28T16:11:47.928Z,98300.19
2023-02-28T16:14:28.478Z,98297.47
2023-02-28T16:17:03.508Z,98303.88
2023-02-28T16:19:30.171Z,98298.19
2023-02-28T16:21:56.710Z,98296.00
2023-02-28T16:24:23.433Z,98307.56
2023-02-28T16:26:53.340Z,98302.41
2023-02-28T16:29:31.052Z,98319.59
2023-02-28T16:31:57.880Z,98309.28
2023-02-28T16:34:25.466Z,98318.13
2023-02-28T16:36:52.584Z,98316.19
2023-02-28T16:39:21.701Z,98318.91
2023-02-28T16:41:50.980Z,98326.03
2023-02-28T16:44:34.247Z,98315.69
2023-02-28T16:47:02.388Z,98318.16
2023-02-28T16:49:29.230Z,98317.91
2023-02-28T16:51:56.027Z,98314.69
2023-02-28T16:54:22.747Z,98330.94
2023-02-28T16:56:49.857Z,98325.06
2023-02-28T16:59:22.563Z,98317.91
2023-02-28T17:01:50.146Z,98327.50
2023-02-28T17:04:16.917Z,98328.97
2023-02-28T17:06:43.681Z,98331.19
2023-02-28T17:09:24.628Z,98333.88
2023-02-28T17:11:57.787Z,98333.91
2023-02-28T17:14:24.539Z,98338.78
2023-02-28T17:16:51.405Z,98332.91
2023-02-28T17:19:19.331Z,98334.63
2023-02-28T17:21:46.291Z,98331.69
2023-02-28T17:24:16.477Z,98340.03
2023-02-28T17:26:46.334Z,98340.75
2023-02-28T17:29:31.178Z,98355.00
2023-02-28T17:32:00.752Z,98346.41
2023-02-28T17:34:29.672Z,98353.25
2023-02-28T17:36:56.316Z,98350.81
2023-02-28T17:39:25.958Z,98355.94
2023-02-28T17:41:53.359Z,98360.88
2023-02-28T17:44:20.928Z,98365.53
2023-02-28T17:46:48.405Z,98357.69
2023-02-28T17:49:15.121Z,98360.13
2023-02-28T17:51:42.068Z,98363.78
2023-02-28T17:54:08.697Z,98361.06
2023-02-28T17:56:35.477Z,98364.03
2023-02-28T17:59:02.125Z,98360.63
2023-02-28T18:01:29.155Z,98363.09
2023-02-28T18:03:56.785Z,98359.84
2023-02-28T18:06:26.694Z,98365.53
2023-02-28T18:08:53.768Z,98367.75
2023-02-28T18:11:22.251Z,98371.41
2023-02-28T18:13:50.873Z,98373.88
2023-02-28T18:16:18.437Z,98379.00
2023-02-28T18:18:45.775Z,98377.28
2023-02-28T18:21:14.994Z,98382.19
2023-02-28T18:23:47.910Z,98383.91
2023-02-28T18:26:16.582Z,98376.31
2023-02-28T18:28:44.648Z,98383.91
2023-02-28T18:31:16.857Z,98381.94
2023-02-28T18:33:44.959Z,98383.91
2023-02-28T18:36:11.532Z,98391.97
2023-02-28T18:38:38.173Z,98387.84
2023-02-28T18:41:07.225Z,98390.53
2023-02-28T18:43:38.588Z,98386.34
2023-02-28T18:46:07.261Z,98381.41
2023-02-28T18:48:34.082Z,98382.91
2023-02-28T18:51:09.634Z,98382.63
2023-02-28T18:53:37.400Z,98381.63
2023-02-28T18:56:05.521Z,98384.81
2023-02-28T18:58:35.899Z,98376.22
2023-02-28T19:01:04.652Z,98391.41
2023-02-28T19:03:31.294Z,98390.66
2023-02-28T19:05:59.971Z,98384.28
2023-02-28T19:08:27.258Z,98382.09
2023-02-28T19:10:53.857Z,98389.22
2023-02-28T19:13:21.094Z,98395.09
2023-02-28T19:15:48.550Z,98396.56
2023-02-28T19:18:15.579Z,98399.19
2023-02-28T19:20:42.218Z,98393.31
2023-02-28T19:23:11.712Z,98393.59
2023-02-28T19:25:41.876Z,98395.81
2023-02-28T19:28:08.552Z,98397.06
2023-02-28T19:30:35.197Z,98394.59
2023-02-28T19:33:01.833Z,98401.44
2023-02-28T19:35:28.511Z,98387.50
2023-02-28T19:37:55.190Z,98396.03
2023-02-28T19:40:21.808Z,98388.66
2023-02-28T19:42:48.409Z,98400.66
2023-02-28T19:45:15.050Z,98393.03
2023-02-28T19:47:41.969Z,98386.88
2023-02-28T19:50:09.416Z,98390.50
2023-02-28T19:52:36.075Z,98387.78
2023-02-28T19:55:02.767Z,98392.91
2023-02-28T19:57:29.391Z,98394.09
2023-02-28T19:59:55.952Z,98392.28
2023-02-28T20:02:23.007Z,98389.59
2023-02-28T20:04:51.013Z,98386.09
2023-02-28T20:07:20.302Z,98394.66
2023-02-28T20:09:48.074Z,98401.00
2023-02-28T20:12:24.132Z,98397.06
2023-02-28T20:14:52.381Z,98394.59
2023-02-28T20:17:19.319Z,98397.75
2023-02-28T20:19:46.029Z,98394.81
2023-02-28T20:22:12.699Z,98394.38
2023-02-28T20:24:39.472Z,98382.88
2023-02-28T20:27:06.198Z,98388.47
2023-02-28T20:29:34.099Z,98391.69
2023-02-28T20:32:01.087Z,98394.06
2023-02-28T20:34:27.784Z,98390.34
2023-02-28T20:36:56.541Z,98393.03
2023-02-28T20:39:23.860Z,98384.47
2023-02-28T20:41:50.635Z,98385.69
2023-02-28T20:44:17.668Z,98390.91
2023-02-28T20:46:44.368Z,98381.44
2023-02-28T20:49:11.149Z,98383.41
2023-02-28T20:51:42.243Z,98384.78
2023-02-28T20:54:11.269Z,98379.16
2023-02-28T20:56:38.439Z,98386.44
2023-02-28T20:59:05.647Z,98383.72
2023-02-28T21:01:32.691Z,98387.53
2023-02-28T21:04:02.194Z,98382.34
2023-02-28T21:06:32.538Z,98380.19
2023-02-28T21:08:59.619Z,98387.00
2023-02-28T21:11:29.157Z,98378.13
2023-02-28T21:13:58.309Z,98385.59
2023-02-28T21:16:27.241Z,98383.00
2023-02-28T21:18:54.202Z,98376.56
2023-02-28T21:21:24.449Z,98376.34
2023-02-28T21:23:52.146Z,98381.53
2023-02-28T21:26:21.058Z,98377.19
2023-02-28T21:28:51.609Z,98366.66
2023-02-28T21:31:20.263Z,98360.13
2023-02-28T21:33:47.540Z,98362.63
2023-02-28T21:36:19.903Z,98354.34
2023-02-28T21:38:48.352Z,98355.22
2023-02-28T21:41:20.900Z,98361.06
2023-02-28T21:43:47.872Z,98355.66
2023-02-28T21:46:20.544Z,98349.25
2023-02-28T21:48:50.854Z,98347.78
2023-02-28T21:51:26.120Z,98342.94
2023-02-28T21:53:54.752Z,98335.06
2023-02-28T21:56:31.801Z,98336.28
2023-02-28T21:59:02.356Z,98347.25
2023-02-28T22:01:38.426Z,98345.50
2023-02-28T22:04:07.902Z,98337.97
2023-02-28T22:06:38.582Z,98348.19
2023-02-28T22:09:07.960Z,98350.81
2023-02-28T22:11:35.854Z,98345.72
2023-02-28T22:14:02.657Z,98353.50
2023-02-28T22:16:40.754Z,98343.69
2023-02-28T22:19:15.422Z,98338.59
2023-02-28T22:21:42.178Z,98343.97
2023-02-28T22:24:10.188Z,98342.28
2023-02-28T22:26:36.964Z,98338.78
2023-02-28T22:29:04.580Z,98341.75
2023-02-28T22:31:33.666Z,98346.88
2023-02-28T22:34:02.874Z,98348.94
2023-02-28T22:36:30.405Z,98354.53
2023-02-28T22:38:58.340Z,98354.28
2023-02-28T22:41:26.595Z,98350.09
2023-02-28T22:43:55.836Z,98351.25
2023-02-28T22:46:24.013Z,98360.47
2023-02-28T22:48:51.115Z,98358.72
2023-02-28T22:51:20.851Z,98343.09
2023-02-28T22:53:49.058Z,98341.84
2023-02-28T22:56:17.213Z,98353.25
2023-02-28T22:58:45.001Z,98345.66
2023-02-28T23:01:16.861Z,98350.22
2023-02-28T23:03:44.267Z,98349.09
2023-02-28T23:06:43.562Z,98350.09
2023-02-28T23:09:18.258Z,98359.66
2023-02-28T23:11:47.863Z,98354.47
2023-02-28T23:14:16.323Z,98355.69
2023-02-28T23:16:49.948Z,98353.53
2023-02-28T23:19:23.203Z,98352.38
2023-02-28T23:21:50.620Z,98341.91
2023-02-28T23:24:21.072Z,98339.13
2023-02-28T23:26:50.493Z,98337.25
2023-02-28T23:29:21.822Z,98341.91
2023-02-28T23:31:49.212Z,98323.13
2023-02-28T23:34:18.554Z,98334.38
2023-02-28T23:36:46.287Z,98334.28
2023-02-28T23:39:16.361Z,98330.81
2023-02-28T23:41:43.084Z,98335.09
2023-02-28T23:44:13.690Z,98326.28
2023-02-28T23:46:40.476Z,98334.63
2023-02-28T23:49:07.117Z,98330.28
2023-02-28T23:51:33.957Z,98324.47
2023-02-28T23:54:02.952Z,98323.94
2023-02-28T23:56:30.758Z,98321.09
2023-02-28T23:58:58.259Z,98323.78
